sensor_id;sensor_type;location;lat;lon;timestamp;P1;durP1;ratioP1;P2;durP2;ratioP2
44862;SDS011;30597;49.628;10.850;2023-02-04T00:01:33;1.70;;;1.40;;
44862;SDS011;30597;49.628;10.850;2023-02-04T00:03:59;1.90;;;1.33;;
44862;SDS011;30597;49.628;10.850;2023-02-04T00:06:25;2.63;;;1.80;;
44862;SDS011;30597;49.628;10.850;2023-02-04T00:08:51;2.30;;;1.50;;
44862;SDS011;30597;49.628;10.850;2023-02-04T00:11:16;3.30;;;2.00;;
44862;SDS011;30597;49.628;10.850;2023-02-04T00:13:42;1.93;;;1.50;;
44862;SDS011;30597;49.628;10.850;2023-02-04T00:16:07;2.10;;;1.50;;
44862;SDS011;30597;49.628;10.850;2023-02-04T00:18:33;3.60;;;1.53;;
44862;SDS011;30597;49.628;10.850;2023-02-04T00:20:59;2.27;;;1.30;;
44862;SDS011;30597;49.628;10.850;2023-02-04T00:23:24;2.23;;;1.40;;
44862;SDS011;30597;49.628;10.850;2023-02-04T00:25:50;1.60;;;1.30;;
44862;SDS011;30597;49.628;10.850;2023-02-04T00:28:15;2.10;;;1.50;;
44862;SDS011;30597;49.628;10.850;2023-02-04T00:30:41;2.13;;;1.50;;
44862;SDS011;30597;49.628;10.850;2023-02-04T00:33:06;2.17;;;1.30;;
44862;SDS011;30597;49.628;10.850;2023-02-04T00:35:32;2.20;;;1.63;;
44862;SDS011;30597;49.628;10.850;2023-02-04T00:37:58;1.90;;;1.17;;
44862;SDS011;30597;49.628;10.850;2023-02-04T00:40:23;2.50;;;1.40;;
44862;SDS011;30597;49.628;10.850;2023-02-04T00:42:49;2.07;;;1.53;;
44862;SDS011;30597;49.628;10.850;2023-02-04T00:45:15;2.17;;;1.70;;
44862;SDS011;30597;49.628;10.850;2023-02-04T00:47:40;1.90;;;1.50;;
44862;SDS011;30597;49.628;10.850;2023-02-04T00:50:06;2.20;;;1.40;;
44862;SDS011;30597;49.628;10.850;2023-02-04T00:52:32;1.60;;;1.27;;
44862;SDS011;30597;49.628;10.850;2023-02-04T00:54:57;1.90;;;1.70;;
44862;SDS011;30597;49.628;10.850;2023-02-04T00:57:23;2.30;;;1.57;;
44862;SDS011;30597;49.628;10.850;2023-02-04T00:59:48;3.87;;;1.40;;
44862;SDS011;30597;49.628;10.850;2023-02-04T01:02:14;2.03;;;1.23;;
44862;SDS011;30597;49.628;10.850;2023-02-04T01:04:39;2.43;;;1.53;;
44862;SDS011;30597;49.628;10.850;2023-02-04T01:07:05;1.83;;;1.50;;
44862;SDS011;30597;49.628;10.850;2023-02-04T01:09:30;3.77;;;1.60;;
44862;SDS011;30597;49.628;10.850;2023-02-04T01:11:56;1.90;;;1.50;;
44862;SDS011;30597;49.628;10.850;2023-02-04T01:14:22;1.87;;;1.67;;
44862;SDS011;30597;49.628;10.850;2023-02-04T01:16:47;2.63;;;1.43;;
44862;SDS011;30597;49.628;10.850;2023-02-04T01:19:13;3.50;;;1.50;;
44862;SDS011;30597;49.628;10.850;2023-02-04T01:21:38;2.50;;;1.47;;
44862;SDS011;30597;49.628;10.850;2023-02-04T01:24:04;2.87;;;1.60;;
44862;SDS011;30597;49.628;10.850;2023-02-04T01:26:30;2.40;;;1.70;;
44862;SDS011;30597;49.628;10.850;2023-02-04T01:28:55;2.63;;;1.60;;
44862;SDS011;30597;49.628;10.850;2023-02-04T01:31:21;2.60;;;1.40;;
44862;SDS011;30597;49.628;10.850;2023-02-04T01:33:47;2.07;;;1.23;;
44862;SDS011;30597;49.628;10.850;2023-02-04T01:36:12;2.37;;;1.37;;
44862;SDS011;30597;49.628;10.850;2023-02-04T01:38:38;1.53;;;1.40;;
44862;SDS011;30597;49.628;10.850;2023-02-04T01:41:04;1.87;;;1.40;;
44862;SDS011;30597;49.628;10.850;2023-02-04T01:43:30;1.20;;;1.10;;
44862;SDS011;30597;49.628;10.850;2023-02-04T01:45:56;2.37;;;1.67;;
44862;SDS011;30597;49.628;10.850;2023-02-04T01:48:22;2.77;;;1.20;;
44862;SDS011;30597;49.628;10.850;2023-02-04T01:50:52;2.17;;;1.57;;
44862;SDS011;30597;49.628;10.850;2023-02-04T01:53:33;1.70;;;1.30;;
44862;SDS011;30597;49.628;10.850;2023-02-04T01:55:59;1.57;;;1.00;;
44862;SDS011;30597;49.628;10.850;2023-02-04T01:58:26;1.80;;;1.10;;
44862;SDS011;30597;49.628;10.850;2023-02-04T02:00:55;1.47;;;1.37;;
44862;SDS011;30597;49.628;10.850;2023-02-04T02:03:22;1.40;;;1.20;;
44862;SDS011;30597;49.628;10.850;2023-02-04T02:05:48;2.00;;;1.20;;
44862;SDS011;30597;49.628;10.850;2023-02-04T02:08:16;1.30;;;1.00;;
44862;SDS011;30597;49.628;10.850;2023-02-04T02:10:43;2.10;;;1.33;;
44862;SDS011;30597;49.628;10.850;2023-02-04T02:13:12;1.80;;;1.40;;
44862;SDS011;30597;49.628;10.850;2023-02-04T02:15:42;1.93;;;1.23;;
44862;SDS011;30597;49.628;10.850;2023-02-04T02:18:09;1.70;;;1.23;;
44862;SDS011;30597;49.628;10.850;2023-02-04T02:20:35;2.40;;;1.30;;
44862;SDS011;30597;49.628;10.850;2023-02-04T02:23:21;1.17;;;1.07;;
44862;SDS011;30597;49.628;10.850;2023-02-04T02:26:07;3.10;;;1.50;;
44862;SDS011;30597;49.628;10.850;2023-02-04T02:28:33;2.10;;;1.77;;
44862;SDS011;30597;49.628;10.850;2023-02-04T02:30:58;2.43;;;1.40;;
44862;SDS011;30597;49.628;10.850;2023-02-04T02:33:24;1.60;;;1.27;;
44862;SDS011;30597;49.628;10.850;2023-02-04T02:35:50;2.00;;;1.23;;
44862;SDS011;30597;49.628;10.850;2023-02-04T02:38:16;1.57;;;1.10;;
44862;SDS011;30597;49.628;10.850;2023-02-04T02:40:43;1.40;;;1.10;;
44862;SDS011;30597;49.628;10.850;2023-02-04T02:43:14;3.70;;;1.30;;
44862;SDS011;30597;49.628;10.850;2023-02-04T02:45:42;2.43;;;1.20;;
44862;SDS011;30597;49.628;10.850;2023-02-04T02:48:08;3.03;;;1.47;;
44862;SDS011;30597;49.628;10.850;2023-02-04T02:50:34;2.20;;;1.20;;
44862;SDS011;30597;49.628;10.850;2023-02-04T02:53:01;1.40;;;1.10;;
44862;SDS011;30597;49.628;10.850;2023-02-04T02:55:28;1.90;;;1.30;;
44862;SDS011;30597;49.628;10.850;2023-02-04T02:57:54;1.77;;;1.20;;
44862;SDS011;30597;49.628;10.850;2023-02-04T03:00:21;2.40;;;1.30;;
44862;SDS011;30597;49.628;10.850;2023-02-04T03:02:57;1.93;;;1.27;;
44862;SDS011;30597;49.628;10.850;2023-02-04T03:05:27;1.73;;;0.80;;
44862;SDS011;30597;49.628;10.850;2023-02-04T03:07:58;1.83;;;1.07;;
44862;SDS011;30597;49.628;10.850;2023-02-04T03:10:24;3.20;;;1.27;;
44862;SDS011;30597;49.628;10.850;2023-02-04T03:12:49;1.20;;;1.10;;
44862;SDS011;30597;49.628;10.850;2023-02-04T03:15:15;2.53;;;1.20;;
44862;SDS011;30597;49.628;10.850;2023-02-04T03:17:41;1.83;;;1.50;;
44862;SDS011;30597;49.628;10.850;2023-02-04T03:20:08;1.33;;;1.10;;
44862;SDS011;30597;49.628;10.850;2023-02-04T03:22:34;1.37;;;1.27;;
44862;SDS011;30597;49.628;10.850;2023-02-04T03:25:00;2.30;;;1.40;;
44862;SDS011;30597;49.628;10.850;2023-02-04T03:27:26;2.53;;;1.33;;
44862;SDS011;30597;49.628;10.850;2023-02-04T03:29:53;1.60;;;1.23;;
44862;SDS011;30597;49.628;10.850;2023-02-04T03:32:19;2.10;;;1.30;;
44862;SDS011;30597;49.628;10.850;2023-02-04T03:34:45;1.57;;;1.30;;
44862;SDS011;30597;49.628;10.850;2023-02-04T03:37:11;2.53;;;1.30;;
44862;SDS011;30597;49.628;10.850;2023-02-04T03:39:36;2.47;;;1.20;;
44862;SDS011;30597;49.628;10.850;2023-02-04T03:42:02;1.47;;;0.90;;
44862;SDS011;30597;49.628;10.850;2023-02-04T03:44:28;1.90;;;1.23;;
44862;SDS011;30597;49.628;10.850;2023-02-04T03:46:53;1.53;;;1.30;;
44862;SDS011;30597;49.628;10.850;2023-02-04T03:49:22;1.50;;;1.10;;
44862;SDS011;30597;49.628;10.850;2023-02-04T03:51:48;2.13;;;0.90;;
44862;SDS011;30597;49.628;10.850;2023-02-04T03:54:14;1.93;;;1.20;;
44862;SDS011;30597;49.628;10.850;2023-02-04T03:56:40;1.87;;;1.03;;
44862;SDS011;30597;49.628;10.850;2023-02-04T03:59:05;1.10;;;1.00;;
44862;SDS011;30597;49.628;10.850;2023-02-04T04:01:31;1.03;;;0.80;;
44862;SDS011;30597;49.628;10.850;2023-02-04T04:03:56;1.90;;;1.20;;
44862;SDS011;30597;49.628;10.850;2023-02-04T04:06:22;1.87;;;1.30;;
44862;SDS011;30597;49.628;10.850;2023-02-04T04:08:48;2.10;;;1.30;;
44862;SDS011;30597;49.628;10.850;2023-02-04T04:11:14;2.00;;;1.70;;
44862;SDS011;30597;49.628;10.850;2023-02-04T04:13:40;1.93;;;1.07;;
44862;SDS011;30597;49.628;10.850;2023-02-04T04:16:06;3.43;;;1.20;;
44862;SDS011;30597;49.628;10.850;2023-02-04T04:18:33;2.50;;;1.20;;
44862;SDS011;30597;49.628;10.850;2023-02-04T04:20:58;3.00;;;1.17;;
44862;SDS011;30597;49.628;10.850;2023-02-04T04:23:25;2.33;;;1.13;;
44862;SDS011;30597;49.628;10.850;2023-02-04T04:25:50;1.10;;;0.93;;
44862;SDS011;30597;49.628;10.850;2023-02-04T04:28:16;3.33;;;0.90;;
44862;SDS011;30597;49.628;10.850;2023-02-04T04:30:41;1.83;;;1.13;;
44862;SDS011;30597;49.628;10.850;2023-02-04T04:33:07;1.07;;;0.87;;
44862;SDS011;30597;49.628;10.850;2023-02-04T04:35:33;2.50;;;1.20;;
44862;SDS011;30597;49.628;10.850;2023-02-04T04:37:59;1.70;;;1.00;;
44862;SDS011;30597;49.628;10.850;2023-02-04T04:40:25;1.10;;;0.70;;
44862;SDS011;30597;49.628;10.850;2023-02-04T04:42:51;2.17;;;1.10;;
44862;SDS011;30597;49.628;10.850;2023-02-04T04:45:17;0.80;;;0.60;;
44862;SDS011;30597;49.628;10.850;2023-02-04T04:47:43;1.23;;;0.90;;
44862;SDS011;30597;49.628;10.850;2023-02-04T04:50:09;2.30;;;1.10;;
44862;SDS011;30597;49.628;10.850;2023-02-04T04:52:35;1.77;;;1.03;;
44862;SDS011;30597;49.628;10.850;2023-02-04T04:55:00;1.40;;;1.07;;
44862;SDS011;30597;49.628;10.850;2023-02-04T04:57:26;1.87;;;0.90;;
44862;SDS011;30597;49.628;10.850;2023-02-04T04:59:51;2.53;;;1.10;;
44862;SDS011;30597;49.628;10.850;2023-02-04T05:02:17;1.70;;;1.20;;
44862;SDS011;30597;49.628;10.850;2023-02-04T05:04:42;1.90;;;0.97;;
44862;SDS011;30597;49.628;10.850;2023-02-04T05:07:08;2.07;;;1.00;;
44862;SDS011;30597;49.628;10.850;2023-02-04T05:09:34;1.93;;;0.90;;
44862;SDS011;30597;49.628;10.850;2023-02-04T05:11:59;1.47;;;1.13;;
44862;SDS011;30597;49.628;10.850;2023-02-04T05:14:25;1.83;;;1.13;;
44862;SDS011;30597;49.628;10.850;2023-02-04T05:16:50;1.83;;;1.17;;
44862;SDS011;30597;49.628;10.850;2023-02-04T05:19:16;1.30;;;0.93;;
44862;SDS011;30597;49.628;10.850;2023-02-04T05:21:41;1.73;;;1.20;;
44862;SDS011;30597;49.628;10.850;2023-02-04T05:24:07;1.80;;;1.10;;
44862;SDS011;30597;49.628;10.850;2023-02-04T05:26:32;1.70;;;1.07;;
44862;SDS011;30597;49.628;10.850;2023-02-04T05:28:58;2.57;;;0.93;;
44862;SDS011;30597;49.628;10.850;2023-02-04T05:31:24;2.80;;;1.23;;
44862;SDS011;30597;49.628;10.850;2023-02-04T05:33:50;1.17;;;0.90;;
44862;SDS011;30597;49.628;10.850;2023-02-04T05:36:15;2.80;;;1.07;;
44862;SDS011;30597;49.628;10.850;2023-02-04T05:38:42;1.90;;;0.80;;
44862;SDS011;30597;49.628;10.850;2023-02-04T05:41:07;1.33;;;1.23;;
44862;SDS011;30597;49.628;10.850;2023-02-04T05:43:33;1.60;;;0.90;;
44862;SDS011;30597;49.628;10.850;2023-02-04T05:45:59;1.47;;;0.97;;
44862;SDS011;30597;49.628;10.850;2023-02-04T05:48:25;2.07;;;1.00;;
44862;SDS011;30597;49.628;10.850;2023-02-04T05:50:51;1.97;;;1.10;;
44862;SDS011;30597;49.628;10.850;2023-02-04T05:53:16;1.60;;;0.80;;
44862;SDS011;30597;49.628;10.850;2023-02-04T05:55:42;1.70;;;0.60;;
44862;SDS011;30597;49.628;10.850;2023-02-04T05:58:08;1.00;;;0.90;;
44862;SDS011;30597;49.628;10.850;2023-02-04T06:00:33;1.20;;;0.80;;
44862;SDS011;30597;49.628;10.850;2023-02-04T06:02:59;1.73;;;0.90;;
44862;SDS011;30597;49.628;10.850;2023-02-04T06:05:24;1.73;;;1.00;;
44862;SDS011;30597;49.628;10.850;2023-02-04T06:07:50;2.50;;;1.17;;
44862;SDS011;30597;49.628;10.850;2023-02-04T06:10:16;1.73;;;1.07;;
44862;SDS011;30597;49.628;10.850;2023-02-04T06:12:41;1.03;;;0.73;;
44862;SDS011;30597;49.628;10.850;2023-02-04T06:15:07;2.10;;;1.13;;
44862;SDS011;30597;49.628;10.850;2023-02-04T06:17:33;2.03;;;0.90;;
44862;SDS011;30597;49.628;10.850;2023-02-04T06:19:59;1.70;;;0.73;;
44862;SDS011;30597;49.628;10.850;2023-02-04T06:22:25;2.00;;;0.80;;
44862;SDS011;30597;49.628;10.850;2023-02-04T06:24:50;1.87;;;1.30;;
44862;SDS011;30597;49.628;10.850;2023-02-04T06:27:16;1.90;;;1.00;;
44862;SDS011;30597;49.628;10.850;2023-02-04T06:29:47;1.57;;;0.70;;
44862;SDS011;30597;49.628;10.850;2023-02-04T06:32:14;1.63;;;1.00;;
44862;SDS011;30597;49.628;10.850;2023-02-04T06:34:40;1.80;;;0.90;;
44862;SDS011;30597;49.628;10.850;2023-02-04T06:37:06;1.10;;;0.83;;
44862;SDS011;30597;49.628;10.850;2023-02-04T06:39:31;1.60;;;0.93;;
44862;SDS011;30597;49.628;10.850;2023-02-04T06:41:57;1.67;;;0.80;;
44862;SDS011;30597;49.628;10.850;2023-02-04T06:44:22;1.23;;;0.70;;
44862;SDS011;30597;49.628;10.850;2023-02-04T06:46:48;2.00;;;0.90;;
44862;SDS011;30597;49.628;10.850;2023-02-04T06:49:14;3.23;;;1.60;;
44862;SDS011;30597;49.628;10.850;2023-02-04T06:51:39;1.50;;;0.80;;
44862;SDS011;30597;49.628;10.850;2023-02-04T06:54:05;2.57;;;1.10;;
44862;SDS011;30597;49.628;10.850;2023-02-04T06:56:30;2.00;;;0.80;;
44862;SDS011;30597;49.628;10.850;2023-02-04T06:58:56;2.70;;;1.63;;
44862;SDS011;30597;49.628;10.850;2023-02-04T07:01:21;1.47;;;0.83;;
44862;SDS011;30597;49.628;10.850;2023-02-04T07:03:47;2.57;;;1.10;;
44862;SDS011;30597;49.628;10.850;2023-02-04T07:06:12;2.10;;;1.00;;
44862;SDS011;30597;49.628;10.850;2023-02-04T07:08:38;2.60;;;1.00;;
44862;SDS011;30597;49.628;10.850;2023-02-04T07:11:03;1.63;;;1.07;;
44862;SDS011;30597;49.628;10.850;2023-02-04T07:13:29;1.57;;;0.90;;
44862;SDS011;30597;49.628;10.850;2023-02-04T07:15:55;2.00;;;1.10;;
44862;SDS011;30597;49.628;10.850;2023-02-04T07:18:20;1.67;;;1.00;;
44862;SDS011;30597;49.628;10.850;2023-02-04T07:20:46;3.10;;;1.30;;
44862;SDS011;30597;49.628;10.850;2023-02-04T07:23:11;1.83;;;1.20;;
44862;SDS011;30597;49.628;10.850;2023-02-04T07:25:37;2.00;;;1.07;;
44862;SDS011;30597;49.628;10.850;2023-02-04T07:28:03;1.53;;;1.20;;
44862;SDS011;30597;49.628;10.850;2023-02-04T07:30:29;1.20;;;1.10;;
44862;SDS011;30597;49.628;10.850;2023-02-04T07:32:55;3.80;;;1.90;;
44862;SDS011;30597;49.628;10.850;2023-02-04T07:35:21;2.27;;;1.50;;
44862;SDS011;30597;49.628;10.850;2023-02-04T07:37:46;3.07;;;2.20;;
44862;SDS011;30597;49.628;10.850;2023-02-04T07:40:12;2.97;;;1.97;;
44862;SDS011;30597;49.628;10.850;2023-02-04T07:42:38;3.40;;;1.90;;
44862;SDS011;30597;49.628;10.850;2023-02-04T07:45:03;2.33;;;1.80;;
44862;SDS011;30597;49.628;10.850;2023-02-04T07:47:29;3.40;;;2.43;;
44862;SDS011;30597;49.628;10.850;2023-02-04T07:49:55;2.63;;;1.93;;
44862;SDS011;30597;49.628;10.850;2023-02-04T07:52:21;2.93;;;2.73;;
44862;SDS011;30597;49.628;10.850;2023-02-04T07:54:48;2.90;;;2.30;;
44862;SDS011;30597;49.628;10.850;2023-02-04T07:57:13;3.53;;;3.20;;
44862;SDS011;30597;49.628;10.850;2023-02-04T07:59:39;3.20;;;2.90;;
44862;SDS011;30597;49.628;10.850;2023-02-04T08:02:04;3.83;;;3.20;;
44862;SDS011;30597;49.628;10.850;2023-02-04T08:04:30;3.70;;;3.10;;
44862;SDS011;30597;49.628;10.850;2023-02-04T08:06:56;4.00;;;3.57;;
44862;SDS011;30597;49.628;10.850;2023-02-04T08:09:22;3.97;;;3.50;;
44862;SDS011;30597;49.628;10.850;2023-02-04T08:11:48;3.53;;;3.23;;
44862;SDS011;30597;49.628;10.850;2023-02-04T08:14:13;4.27;;;3.40;;
44862;SDS011;30597;49.628;10.850;2023-02-04T08:16:39;5.67;;;4.30;;
44862;SDS011;30597;49.628;10.850;2023-02-04T08:19:04;6.20;;;4.00;;
44862;SDS011;30597;49.628;10.850;2023-02-04T08:21:30;4.60;;;4.00;;
44862;SDS011;30597;49.628;10.850;2023-02-04T08:23:55;4.13;;;3.83;;
44862;SDS011;30597;49.628;10.850;2023-02-04T08:26:21;4.57;;;4.10;;
44862;SDS011;30597;49.628;10.850;2023-02-04T08:28:46;4.70;;;4.03;;
44862;SDS011;30597;49.628;10.850;2023-02-04T08:31:12;5.20;;;4.30;;
44862;SDS011;30597;49.628;10.850;2023-02-04T08:33:38;5.20;;;4.37;;
44862;SDS011;30597;49.628;10.850;2023-02-04T08:36:07;5.10;;;4.60;;
44862;SDS011;30597;49.628;10.850;2023-02-04T08:38:33;4.67;;;4.20;;
44862;SDS011;30597;49.628;10.850;2023-02-04T08:40:58;4.30;;;3.90;;
44862;SDS011;30597;49.628;10.850;2023-02-04T08:43:24;5.07;;;4.20;;
44862;SDS011;30597;49.628;10.850;2023-02-04T08:45:50;5.43;;;4.90;;
44862;SDS011;30597;49.628;10.850;2023-02-04T08:48:16;4.60;;;4.20;;
44862;SDS011;30597;49.628;10.850;2023-02-04T08:50:42;5.17;;;4.77;;
44862;SDS011;30597;49.628;10.850;2023-02-04T08:53:07;5.73;;;4.50;;
44862;SDS011;30597;49.628;10.850;2023-02-04T08:55:33;5.57;;;4.93;;
44862;SDS011;30597;49.628;10.850;2023-02-04T08:57:58;5.70;;;4.60;;
44862;SDS011;30597;49.628;10.850;2023-02-04T09:00:25;4.63;;;4.17;;
44862;SDS011;30597;49.628;10.850;2023-02-04T09:02:51;5.60;;;4.50;;
44862;SDS011;30597;49.628;10.850;2023-02-04T09:05:16;6.10;;;4.27;;
44862;SDS011;30597;49.628;10.850;2023-02-04T09:07:42;4.70;;;3.83;;
44862;SDS011;30597;49.628;10.850;2023-02-04T09:10:08;4.60;;;4.20;;
44862;SDS011;30597;49.628;10.850;2023-02-04T09:12:34;5.40;;;4.73;;
44862;SDS011;30597;49.628;10.850;2023-02-04T09:14:59;4.53;;;4.13;;
44862;SDS011;30597;49.628;10.850;2023-02-04T09:17:25;5.03;;;4.37;;
44862;SDS011;30597;49.628;10.850;2023-02-04T09:19:50;4.53;;;4.13;;
44862;SDS011;30597;49.628;10.850;2023-02-04T09:22:16;5.30;;;4.80;;
44862;SDS011;30597;49.628;10.850;2023-02-04T09:24:41;4.47;;;4.07;;
44862;SDS011;30597;49.628;10.850;2023-02-04T09:27:07;4.53;;;4.13;;
44862;SDS011;30597;49.628;10.850;2023-02-04T09:29:32;4.77;;;4.30;;
44862;SDS011;30597;49.628;10.850;2023-02-04T09:31:58;4.00;;;3.63;;
44862;SDS011;30597;49.628;10.850;2023-02-04T09:34:23;4.07;;;3.63;;
44862;SDS011;30597;49.628;10.850;2023-02-04T09:36:49;5.23;;;4.73;;
44862;SDS011;30597;49.628;10.850;2023-02-04T09:39:14;4.73;;;4.23;;
44862;SDS011;30597;49.628;10.850;2023-02-04T09:41:40;4.80;;;4.27;;
44862;SDS011;30597;49.628;10.850;2023-02-04T09:44:09;4.30;;;3.90;;
44862;SDS011;30597;49.628;10.850;2023-02-04T09:46:39;4.67;;;3.80;;
44862;SDS011;30597;49.628;10.850;2023-02-04T09:49:16;4.77;;;4.30;;
44862;SDS011;30597;49.628;10.850;2023-02-04T09:51:42;4.70;;;4.30;;
44862;SDS011;30597;49.628;10.850;2023-02-04T09:54:13;4.33;;;3.93;;
44862;SDS011;30597;49.628;10.850;2023-02-04T09:56:40;5.90;;;4.27;;
44862;SDS011;30597;49.628;10.850;2023-02-04T09:59:10;4.67;;;3.77;;
44862;SDS011;30597;49.628;10.850;2023-02-04T10:01:40;3.93;;;3.53;;
44862;SDS011;30597;49.628;10.850;2023-02-04T10:04:13;3.90;;;3.60;;
44862;SDS011;30597;49.628;10.850;2023-02-04T10:06:39;5.23;;;3.83;;
44862;SDS011;30597;49.628;10.850;2023-02-04T10:09:08;3.40;;;3.10;;
44862;SDS011;30597;49.628;10.850;2023-02-04T10:11:38;4.00;;;3.70;;
44862;SDS011;30597;49.628;10.850;2023-02-04T10:14:05;4.80;;;4.10;;
44862;SDS011;30597;49.628;10.850;2023-02-04T10:16:38;4.20;;;3.90;;
44862;SDS011;30597;49.628;10.850;2023-02-04T10:19:06;5.60;;;4.80;;
44862;SDS011;30597;49.628;10.850;2023-02-04T10:21:40;4.17;;;3.77;;
44862;SDS011;30597;49.628;10.850;2023-02-04T10:24:18;4.37;;;3.97;;
44862;SDS011;30597;49.628;10.850;2023-02-04T10:26:46;4.03;;;3.60;;
44862;SDS011;30597;49.628;10.850;2023-02-04T10:29:13;4.73;;;4.30;;
44862;SDS011;30597;49.628;10.850;2023-02-04T10:31:42;4.30;;;3.90;;
44862;SDS011;30597;49.628;10.850;2023-02-04T10:36:43;5.03;;;4.00;;
44862;SDS011;30597;49.628;10.850;2023-02-04T10:39:28;4.00;;;3.63;;
44862;SDS011;30597;49.628;10.850;2023-02-04T10:41:55;4.23;;;3.80;;
44862;SDS011;30597;49.628;10.850;2023-02-04T10:44:32;4.37;;;3.97;;
44862;SDS011;30597;49.628;10.850;2023-02-04T10:47:06;4.27;;;3.50;;
44862;SDS011;30597;49.628;10.850;2023-02-04T10:49:41;4.73;;;3.80;;
44862;SDS011;30597;49.628;10.850;2023-02-04T10:52:16;5.50;;;4.50;;
44862;SDS011;30597;49.628;10.850;2023-02-04T10:54:43;4.10;;;3.80;;
44862;SDS011;30597;49.628;10.850;2023-02-04T10:57:22;4.80;;;3.87;;
44862;SDS011;30597;49.628;10.850;2023-02-04T10:59:53;7.50;;;5.53;;
44862;SDS011;30597;49.628;10.850;2023-02-04T11:02:41;6.87;;;6.20;;
44862;SDS011;30597;49.628;10.850;2023-02-04T11:05:10;8.43;;;7.63;;
44862;SDS011;30597;49.628;10.850;2023-02-04T11:07:47;9.70;;;7.90;;
44862;SDS011;30597;49.628;10.850;2023-02-04T11:13:43;23.60;;;20.10;;
44862;SDS011;30597;49.628;10.850;2023-02-04T11:16:25;23.10;;;19.17;;
44862;SDS011;30597;49.628;10.850;2023-02-04T11:18:56;26.53;;;19.60;;
44862;SDS011;30597;49.628;10.850;2023-02-04T11:21:25;22.53;;;18.23;;
44862;SDS011;30597;49.628;10.850;2023-02-04T11:29:29;21.43;;;17.00;;
44862;SDS011;30597;49.628;10.850;2023-02-04T11:32:03;18.60;;;15.80;;
44862;SDS011;30597;49.628;10.850;2023-02-04T11:34:42;17.30;;;14.07;;
44862;SDS011;30597;49.628;10.850;2023-02-04T11:37:16;18.13;;;15.63;;
44862;SDS011;30597;49.628;10.850;2023-02-04T11:39:43;17.30;;;14.00;;
44862;SDS011;30597;49.628;10.850;2023-02-04T11:42:14;16.43;;;14.63;;
44862;SDS011;30597;49.628;10.850;2023-02-04T11:44:51;17.20;;;13.40;;
44862;SDS011;30597;49.628;10.850;2023-02-04T11:47:23;19.47;;;15.10;;
44862;SDS011;30597;49.628;10.850;2023-02-04T11:49:57;19.53;;;14.43;;
44862;SDS011;30597;49.628;10.850;2023-02-04T11:52:26;15.17;;;13.20;;
44862;SDS011;30597;49.628;10.850;2023-02-04T11:54:55;14.30;;;12.53;;
44862;SDS011;30597;49.628;10.850;2023-02-04T11:57:23;14.23;;;12.80;;
44862;SDS011;30597;49.628;10.850;2023-02-04T11:59:49;18.70;;;12.50;;
44862;SDS011;30597;49.628;10.850;2023-02-04T12:02:15;15.93;;;13.23;;
44862;SDS011;30597;49.628;10.850;2023-02-04T12:04:56;14.43;;;12.73;;
44862;SDS011;30597;49.628;10.850;2023-02-04T12:07:33;14.33;;;12.67;;
44862;SDS011;30597;49.628;10.850;2023-02-04T12:10:09;13.40;;;12.00;;
44862;SDS011;30597;49.628;10.850;2023-02-04T12:12:47;14.60;;;12.30;;
44862;SDS011;30597;49.628;10.850;2023-02-04T12:15:22;15.40;;;12.80;;
44862;SDS011;30597;49.628;10.850;2023-02-04T12:18:03;13.47;;;11.47;;
44862;SDS011;30597;49.628;10.850;2023-02-04T12:20:31;14.30;;;11.53;;
44862;SDS011;30597;49.628;10.850;2023-02-04T12:22:57;12.67;;;11.17;;
44862;SDS011;30597;49.628;10.850;2023-02-04T12:25:23;13.60;;;12.07;;
44862;SDS011;30597;49.628;10.850;2023-02-04T12:27:49;15.30;;;12.20;;
44862;SDS011;30597;49.628;10.850;2023-02-04T12:30:15;12.80;;;11.50;;
44862;SDS011;30597;49.628;10.850;2023-02-04T12:32:42;12.70;;;10.90;;
44862;SDS011;30597;49.628;10.850;2023-02-04T12:35:08;12.20;;;10.90;;
44862;SDS011;30597;49.628;10.850;2023-02-04T12:37:33;10.33;;;9.23;;
44862;SDS011;30597;49.628;10.850;2023-02-04T12:39:59;11.70;;;10.47;;
44862;SDS011;30597;49.628;10.850;2023-02-04T12:42:25;11.90;;;10.70;;
44862;SDS011;30597;49.628;10.850;2023-02-04T12:44:50;13.70;;;10.30;;
44862;SDS011;30597;49.628;10.850;2023-02-04T12:47:16;11.70;;;10.33;;
44862;SDS011;30597;49.628;10.850;2023-02-04T12:49:41;13.53;;;11.53;;
44862;SDS011;30597;49.628;10.850;2023-02-04T12:52:07;13.43;;;11.10;;
44862;SDS011;30597;49.628;10.850;2023-02-04T12:54:33;11.67;;;9.43;;
44862;SDS011;30597;49.628;10.850;2023-02-04T12:56:58;11.10;;;10.00;;
44862;SDS011;30597;49.628;10.850;2023-02-04T12:59:26;11.37;;;9.13;;
44862;SDS011;30597;49.628;10.850;2023-02-04T13:01:52;10.73;;;9.67;;
44862;SDS011;30597;49.628;10.850;2023-02-04T13:04:17;10.90;;;9.67;;
44862;SDS011;30597;49.628;10.850;2023-02-04T13:06:43;11.03;;;9.33;;
44862;SDS011;30597;49.628;10.850;2023-02-04T13:09:09;10.50;;;9.50;;
44862;SDS011;30597;49.628;10.850;2023-02-04T13:11:34;10.53;;;8.87;;
44862;SDS011;30597;49.628;10.850;2023-02-04T13:14:00;10.33;;;9.13;;
44862;SDS011;30597;49.628;10.850;2023-02-04T13:16:26;11.40;;;10.20;;
44862;SDS011;30597;49.628;10.850;2023-02-04T13:18:51;10.60;;;9.30;;
44862;SDS011;30597;49.628;10.850;2023-02-04T13:21:17;11.50;;;9.40;;
44862;SDS011;30597;49.628;10.850;2023-02-04T13:23:42;11.40;;;9.27;;
44862;SDS011;30597;49.628;10.850;2023-02-04T13:26:08;10.00;;;8.97;;
44862;SDS011;30597;49.628;10.850;2023-02-04T13:28:36;11.47;;;8.70;;
44862;SDS011;30597;49.628;10.850;2023-02-04T13:31:03;16.20;;;7.90;;
44862;SDS011;30597;49.628;10.850;2023-02-04T13:33:32;10.23;;;7.97;;
44862;SDS011;30597;49.628;10.850;2023-02-04T13:35:57;8.97;;;6.07;;
44862;SDS011;30597;49.628;10.850;2023-02-04T13:38:23;10.37;;;6.13;;
44862;SDS011;30597;49.628;10.850;2023-02-04T13:40:49;7.10;;;4.00;;
44862;SDS011;30597;49.628;10.850;2023-02-04T13:43:15;7.00;;;4.00;;
44862;SDS011;30597;49.628;10.850;2023-02-04T13:45:41;5.70;;;3.20;;
44862;SDS011;30597;49.628;10.850;2023-02-04T13:48:12;5.80;;;3.13;;
44862;SDS011;30597;49.628;10.850;2023-02-04T13:50:37;3.70;;;2.30;;
44862;SDS011;30597;49.628;10.850;2023-02-04T13:53:03;3.13;;;1.57;;
44862;SDS011;30597;49.628;10.850;2023-02-04T13:55:29;1.97;;;1.53;;
44862;SDS011;30597;49.628;10.850;2023-02-04T13:57:56;3.30;;;1.50;;
44862;SDS011;30597;49.628;10.850;2023-02-04T14:00:21;2.47;;;1.27;;
44862;SDS011;30597;49.628;10.850;2023-02-04T14:02:47;1.60;;;1.07;;
44862;SDS011;30597;49.628;10.850;2023-02-04T14:05:14;1.33;;;0.90;;
44862;SDS011;30597;49.628;10.850;2023-02-04T14:07:40;1.17;;;0.90;;
44862;SDS011;30597;49.628;10.850;2023-02-04T14:10:06;1.33;;;0.97;;
44862;SDS011;30597;49.628;10.850;2023-02-04T14:12:32;1.70;;;0.77;;
44862;SDS011;30597;49.628;10.850;2023-02-04T14:14:57;1.83;;;0.90;;
44862;SDS011;30597;49.628;10.850;2023-02-04T14:17:23;1.30;;;0.70;;
44862;SDS011;30597;49.628;10.850;2023-02-04T14:19:50;0.90;;;0.70;;
44862;SDS011;30597;49.628;10.850;2023-02-04T14:22:17;0.80;;;0.53;;
44862;SDS011;30597;49.628;10.850;2023-02-04T14:24:42;1.40;;;0.70;;
44862;SDS011;30597;49.628;10.850;2023-02-04T14:27:08;1.37;;;0.50;;
44862;SDS011;30597;49.628;10.850;2023-02-04T14:29:34;1.03;;;0.77;;
44862;SDS011;30597;49.628;10.850;2023-02-04T14:32:01;1.30;;;0.90;;
44862;SDS011;30597;49.628;10.850;2023-02-04T14:34:30;2.20;;;0.90;;
44862;SDS011;30597;49.628;10.850;2023-02-04T14:36:57;2.57;;;1.17;;
44862;SDS011;30597;49.628;10.850;2023-02-04T14:39:23;3.67;;;0.87;;
44862;SDS011;30597;49.628;10.850;2023-02-04T14:41:49;2.23;;;1.10;;